Time;durP1;ratioP1;P1;durP2;ratioP2;P2;SDS_P1;SDS_P2;PMS_P1;PMS_P2;Temp;Humidity;BMP_temperature;BMP_pressure;BME280_temperature;BME280_humidity;BME280_pressure;Samples;Min_cycle;Max_cycle;Signal;HPM_P1;HPM_P2
2023/06/05 00:01:06;;;;;;;2.65;0.73;;;;;;;11.02;45.59;102449.47;5071416;28;20373;-72
2023/06/05 00:03:32;;;;;;;2.45;0.50;;;;;;;10.97;45.64;102446.06;5073171;27;20076;-75
2023/06/05 00:05:57;;;;;;;2.25;0.80;;;;;;;11.12;45.31;102446.69;5075028;28;20264;-72
2023/06/05 00:08:23;;;;;;;2.03;1.20;;;;;;;11.03;45.66;102448.56;5071550;27;20115;-76
2023/06/05 00:10:48;;;;;;;1.92;0.80;;;;;;;10.89;45.61;102455.78;5072846;28;20032;-72
2023/06/05 00:13:14;;;;;;;1.15;0.60;;;;;;;10.89;45.76;102447.94;5072018;27;20991;-76
2023/06/05 00:15:39;;;;;;;2.15;0.93;;;;;;;10.76;46.33;102455.06;5078343;27;20130;-75
2023/06/05 00:18:05;;;;;;;1.75;0.88;;;;;;;10.70;46.61;102451.69;5075558;27;20591;-75
2023/06/05 00:20:31;;;;;;;1.70;0.57;;;;;;;10.78;46.54;102455.91;5071540;28;20625;-74
2023/06/05 00:22:56;;;;;;;4.10;1.10;;;;;;;10.76;46.22;102456.81;5069048;27;20133;-75
2023/06/05 00:25:22;;;;;;;2.22;0.80;;;;;;;10.77;46.13;102458.53;5070826;28;20676;-75
2023/06/05 00:27:47;;;;;;;3.03;1.58;;;;;;;10.74;46.38;102454.22;5068217;27;20046;-75
2023/06/05 00:30:13;;;;;;;3.70;1.10;;;;;;;10.61;47.01;102447.44;5070493;28;20047;-74
2023/06/05 00:32:39;;;;;;;2.15;1.08;;;;;;;10.72;46.63;102449.91;5061465;27;20492;-73
2023/06/05 00:35:07;;;;;;;1.67;0.68;;;;;;;10.78;46.32;102447.22;5105399;27;20028;-74
2023/06/05 00:37:33;;;;;;;2.25;1.15;;;;;;;10.86;46.18;102437.53;5078831;28;20035;-73
2023/06/05 00:39:59;;;;;;;1.80;1.17;;;;;;;10.88;45.87;102448.81;5071501;28;20040;-73
2023/06/05 00:42:26;;;;;;;3.25;1.33;;;;;;;10.67;46.45;102443.91;5070255;28;20066;-74
2023/06/05 00:44:52;;;;;;;2.10;1.10;;;;;;;10.68;46.54;102450.84;5071316;28;20104;-74
2023/06/05 00:47:18;;;;;;;3.35;1.80;;;;;;;10.59;46.36;102444.88;5056197;28;20032;-73
2023/06/05 00:49:44;;;;;;;2.47;1.17;;;;;;;10.64;47.04;102447.44;5076559;27;20039;-74
2023/06/05 00:52:10;;;;;;;2.72;1.80;;;;;;;10.56;46.88;102439.69;5073467;28;20763;-71
2023/06/05 00:54:36;;;;;;;3.15;1.30;;;;;;;10.62;47.22;102442.22;5092288;27;20461;-72
2023/06/05 00:57:02;;;;;;;3.00;1.35;;;;;;;10.73;47.14;102446.44;5089905;27;20031;-73
2023/06/05 00:59:29;;;;;;;3.92;1.50;;;;;;;10.57;47.09;102449.28;5066962;27;20084;-73
2023/06/05 01:01:55;;;;;;;1.58;0.82;;;;;;;10.57;47.25;102441.44;5073891;28;20250;-73
2023/06/05 01:04:23;;;;;;;2.00;1.30;;;;;;;10.50;47.39;102445.00;5067994;28;20039;-71
2023/06/05 01:06:51;;;;;;;3.75;1.10;;;;;;;10.62;46.92;102439.59;5087952;27;20512;-72
2023/06/05 01:09:18;;;;;;;2.47;1.10;;;;;;;10.65;47.23;102438.69;5054400;27;20068;-72
2023/06/05 01:12:17;;;;;;;2.40;1.00;;;;;;;10.69;47.14;102439.50;5049261;28;20043;-71
2023/06/05 01:14:45;;;;;;;2.47;1.02;;;;;;;10.74;46.57;102440.28;5050205;28;20795;-69
2023/06/05 01:17:13;;;;;;;1.77;0.95;;;;;;;10.77;46.50;102435.00;5050276;28;20260;-72
2023/06/05 01:19:39;;;;;;;2.90;1.10;;;;;;;10.73;46.67;102436.81;5050443;28;20036;-73
2023/06/05 01:22:05;;;;;;;2.90;0.80;;;;;;;10.73;46.40;102439.44;5048783;28;20055;-72
2023/06/05 01:24:32;;;;;;;1.92;0.70;;;;;;;10.73;46.47;102436.81;5048559;28;20416;-74
2023/06/05 01:27:07;;;;;;;3.05;1.08;;;;;;;10.72;46.18;102429.00;5052193;28;20036;-74
2023/06/05 01:29:52;;;;;;;1.75;0.80;;;;;;;10.68;46.13;102437.75;5051059;28;20032;-71
2023/06/05 01:32:29;;;;;;;2.17;0.70;;;;;;;10.50;46.12;102424.09;5072071;28;20032;-72
2023/06/05 01:34:58;;;;;;;1.83;0.80;;;;;;;10.48;46.11;102420.66;5056946;28;20883;-72
2023/06/05 01:37:26;;;;;;;1.70;0.43;;;;;;;10.35;46.67;102417.34;5038151;28;20357;-70
2023/06/05 01:39:54;;;;;;;2.10;0.52;;;;;;;10.62;45.63;102423.91;5084949;27;20040;-75
2023/06/05 01:42:23;;;;;;;4.15;0.52;;;;;;;10.44;46.21;102424.19;5057671;28;20048;-73
2023/06/05 01:44:49;;;;;;;1.50;0.30;;;;;;;10.39;46.04;102419.03;5052656;27;20055;-74
2023/06/05 01:47:16;;;;;;;1.45;0.60;;;;;;;10.41;46.15;102414.66;5049603;28;20093;-74
2023/06/05 01:49:43;;;;;;;1.08;0.50;;;;;;;10.51;46.27;102415.38;5055248;28;20048;-73
2023/06/05 01:52:08;;;;;;;2.35;0.63;;;;;;;10.37;45.78;102412.06;5050644;28;20196;-77
2023/06/05 01:54:34;;;;;;;1.85;0.90;;;;;;;10.45;45.79;102409.38;5048941;28;20334;-77
2023/06/05 01:57:00;;;;;;;2.50;1.20;;;;;;;10.28;46.72;102413.09;5052963;28;20508;-75
2023/06/05 01:59:25;;;;;;;3.75;0.85;;;;;;;10.32;46.22;102408.69;5061602;28;20043;-73
2023/06/05 02:01:51;;;;;;;2.47;1.10;;;;;;;10.42;46.12;102405.91;5072432;28;20062;-73
2023/06/05 02:04:18;;;;;;;1.52;0.80;;;;;;;10.53;46.03;102407.50;5047449;27;20064;-69
2023/06/05 02:06:45;;;;;;;4.65;1.25;;;;;;;10.53;45.88;102408.38;5063822;28;20358;-70
2023/06/05 02:09:14;;;;;;;1.70;0.77;;;;;;;10.39;45.78;102405.09;5056439;28;20089;-70
2023/06/05 02:11:42;;;;;;;3.97;1.15;;;;;;;10.15;46.19;102396.72;5050249;28;20477;-70
2023/06/05 02:14:08;;;;;;;2.28;1.60;;;;;;;10.16;46.15;102398.44;5050912;28;20139;-70
2023/06/05 02:16:37;;;;;;;2.03;1.15;;;;;;;10.12;46.29;102393.28;5048840;28;20034;-69
2023/06/05 02:19:03;;;;;;;2.92;1.60;;;;;;;10.15;46.47;102401.94;5051917;28;20051;-69
2023/06/05 02:21:33;;;;;;;2.63;0.80;;;;;;;10.29;46.02;102403.50;5053280;28;20036;-69
2023/06/05 02:24:02;;;;;;;3.20;1.20;;;;;;;10.32;45.53;102399.09;5060494;28;20637;-69
2023/06/05 02:26:28;;;;;;;3.08;0.90;;;;;;;10.26;45.51;102393.06;5050057;28;20163;-70
2023/06/05 02:28:56;;;;;;;2.22;0.60;;;;;;;10.05;45.99;102400.34;5054031;28;20127;-69
2023/06/05 02:31:25;;;;;;;1.38;0.63;;;;;;;10.08;46.22;102395.09;5051059;28;20050;-69
2023/06/05 02:33:52;;;;;;;2.63;0.77;;;;;;;9.99;45.96;102388.25;5055113;28;20036;-70
2023/06/05 02:36:19;;;;;;;1.08;0.45;;;;;;;10.12;45.80;102390.66;5054989;28;20704;-71
2023/06/05 02:38:45;;;;;;;1.70;1.27;;;;;;;10.10;46.28;102388.09;5060396;28;20843;-71
2023/06/05 02:41:11;;;;;;;2.50;1.17;;;;;;;10.09;46.64;102386.34;5058283;28;20040;-70
2023/06/05 02:43:37;;;;;;;1.92;0.80;;;;;;;10.24;45.86;102382.66;5051721;28;20037;-70
2023/06/05 02:46:03;;;;;;;1.80;0.60;;;;;;;10.25;45.92;102380.91;5086697;27;20617;-71
2023/06/05 02:48:28;;;;;;;1.90;0.73;;;;;;;10.17;46.37;102381.91;5047803;28;20044;-71
2023/06/05 02:50:55;;;;;;;2.65;1.10;;;;;;;9.99;46.57;102385.63;5055837;28;20132;-72
2023/06/05 02:53:21;;;;;;;1.88;0.70;;;;;;;10.07;46.47;102384.66;5043818;28;20342;-72
2023/06/05 02:55:47;;;;;;;1.48;0.63;;;;;;;10.08;46.38;102382.03;5057355;28;20487;-70
2023/06/05 02:58:17;;;;;;;2.85;0.85;;;;;;;9.98;46.99;102388.25;5063699;28;20815;-72
2023/06/05 03:00:50;;;;;;;2.30;0.50;;;;;;;9.63;47.77;102386.91;5068781;27;20034;-72
2023/06/05 03:03:16;;;;;;;2.45;0.50;;;;;;;9.87;47.40;102391.00;5062087;28;20465;-71
2023/06/05 03:05:44;;;;;;;1.20;0.43;;;;;;;10.05;46.48;102387.28;5057312;28;20740;-71
2023/06/05 03:08:14;;;;;;;1.63;0.50;;;;;;;9.88;46.91;102391.84;5087563;27;20036;-72
2023/06/05 03:10:39;;;;;;;2.67;0.77;;;;;;;9.81;47.33;102385.84;5071088;27;20028;-72
2023/06/05 03:13:06;;;;;;;2.08;0.52;;;;;;;9.89;47.17;102388.38;5072816;28;20090;-73
2023/06/05 03:15:35;;;;;;;2.10;0.93;;;;;;;9.95;46.74;102388.31;5070132;28;20068;-70
2023/06/05 03:18:00;;;;;;;2.38;0.73;;;;;;;9.93;46.98;102379.63;5072494;28;20531;-71
2023/06/05 03:20:28;;;;;;;1.20;0.75;;;;;;;9.99;46.83;102385.63;5070282;28;20035;-72
2023/06/05 03:22:56;;;;;;;1.38;0.70;;;;;;;10.02;46.99;102388.19;5072939;28;20062;-71
2023/06/05 03:25:23;;;;;;;1.60;0.93;;;;;;;10.03;46.51;102378.59;5072508;28;20043;-71
2023/06/05 03:27:52;;;;;;;3.08;0.80;;;;;;;9.94;47.15;102386.56;5080988;28;21332;-73
2023/06/05 03:30:19;;;;;;;3.35;0.73;;;;;;;9.74;47.57;102379.81;5073516;28;20032;-75
2023/06/05 03:32:48;;;;;;;1.90;1.20;;;;;;;9.85;47.31;102386.69;5072404;28;20093;-74
2023/06/05 03:35:14;;;;;;;3.58;1.75;;;;;;;9.89;47.05;102388.38;5074379;28;20027;-74
2023/06/05 03:37:40;;;;;;;3.90;1.60;;;;;;;9.94;47.65;102386.56;5061730;28;20043;-72
2023/06/05 03:40:06;;;;;;;2.58;1.02;;;;;;;10.02;47.23;102379.50;5059898;28;20040;-73
2023/06/05 03:42:33;;;;;;;2.33;0.80;;;;;;;9.94;47.40;102379.56;5058302;28;20036;-72
2023/06/05 03:44:59;;;;;;;3.05;1.42;;;;;;;10.29;46.53;102387.81;5064916;28;20636;-74
2023/06/05 03:47:28;;;;;;;3.97;1.08;;;;;;;10.32;46.31;102377.31;5071974;27;20031;-72
2023/06/05 03:49:55;;;;;;;2.08;0.80;;;;;;;10.29;46.99;102383.47;5081608;28;20065;-74
2023/06/05 03:52:25;;;;;;;2.10;1.42;;;;;;;10.32;46.94;102377.31;5057751;27;20090;-75
2023/06/05 03:54:53;;;;;;;2.50;1.10;;;;;;;10.40;46.34;102376.31;5072702;28;20027;-70
2023/06/05 03:57:20;;;;;;;2.95;1.33;;;;;;;10.52;46.45;102379.63;5052899;27;20032;-66
2023/06/05 03:59:49;;;;;;;3.47;1.25;;;;;;;10.64;45.95;102384.66;5077866;28;20694;-66
2023/06/05 04:02:15;;;;;;;4.95;1.40;;;;;;;10.59;46.46;102378.63;5054631;28;20154;-66
2023/06/05 04:04:40;;;;;;;3.20;1.30;;;;;;;10.47;46.65;102384.94;5057871;28;20547;-66
2023/06/05 04:07:06;;;;;;;2.13;1.45;;;;;;;10.59;46.41;102379.53;5064492;28;20105;-64
2023/06/05 04:09:32;;;;;;;7.00;1.50;;;;;;;10.70;45.94;102388.91;5071538;28;20501;-66
2023/06/05 04:11:58;;;;;;;7.00;2.03;;;;;;;10.62;46.64;102387.31;5072305;28;20217;-66
2023/06/05 04:14:25;;;;;;;3.88;1.30;;;;;;;10.46;46.50;102385.81;5051101;28;20055;-66
2023/06/05 04:16:50;;;;;;;2.92;1.80;;;;;;;10.43;46.90;102381.47;5060867;28;20039;-74
2023/06/05 04:19:21;;;;;;;4.97;1.85;;;;;;;10.55;46.28;102388.28;5053212;28;20040;-75
2023/06/05 04:21:51;;;;;;;3.22;1.63;;;;;;;10.56;46.31;102391.78;5060923;28;20036;-78
2023/06/05 04:24:17;;;;;;;3.97;1.90;;;;;;;10.38;46.49;102388.53;5077135;28;20082;-77
2023/06/05 04:26:42;;;;;;;3.80;1.98;;;;;;;10.38;47.26;102387.69;5069505;28;20384;-67
2023/06/05 04:29:15;;;;;;;4.22;1.67;;;;;;;10.49;46.82;102391.00;5070893;27;20036;-73
2023/06/05 04:31:43;;;;;;;3.72;1.23;;;;;;;10.56;46.45;102386.53;5075577;27;20031;-67
2023/06/05 04:34:08;;;;;;;6.60;1.65;;;;;;;10.45;46.24;102389.31;5074079;27;20049;-69
2023/06/05 04:36:35;;;;;;;2.80;1.73;;;;;;;10.53;46.60;102390.06;5069882;28;20027;-69
2023/06/05 04:39:03;;;;;;;5.63;2.35;;;;;;;10.44;46.77;102390.22;5103774;27;20039;-69
2023/06/05 04:41:29;;;;;;;2.55;1.27;;;;;;;10.68;46.09;102380.25;5087315;27;20251;-68
2023/06/05 04:43:57;;;;;;;2.20;1.10;;;;;;;10.69;45.91;102376.75;5061219;28;20040;-71
2023/06/05 04:46:23;;;;;;;1.23;0.90;;;;;;;10.45;46.89;102373.63;5069452;27;20286;-70
2023/06/05 04:48:50;;;;;;;2.55;1.10;;;;;;;10.41;46.78;102372.84;5070466;28;20941;-73
2023/06/05 04:51:16;;;;;;;7.63;1.02;;;;;;;10.43;46.81;102367.56;5078978;28;20101;-72
2023/06/05 04:53:42;;;;;;;3.53;1.30;;;;;;;10.49;46.79;102383.16;5068167;28;20101;-71
2023/06/05 04:56:09;;;;;;;1.20;0.55;;;;;;;10.89;46.24;102379.06;5073263;28;20024;-71
2023/06/05 04:58:35;;;;;;;3.20;0.70;;;;;;;10.96;45.84;102376.31;5059541;28;20036;-73
2023/06/05 05:01:06;;;;;;;2.45;0.50;;;;;;;11.44;45.18;102373.66;5064397;28;20036;-72
2023/06/05 05:03:33;;;;;;;2.00;0.60;;;;;;;12.90;41.54;102369.53;5060483;28;20048;-74
2023/06/05 05:06:00;;;;;;;1.92;1.02;;;;;;;14.10;38.31;102374.03;5079417;28;20078;-73
2023/06/05 05:08:27;;;;;;;1.52;0.82;;;;;;;15.01;36.87;102361.38;5050424;28;20047;-73
2023/06/05 05:10:53;;;;;;;2.72;0.80;;;;;;;15.91;34.58;102362.47;5084471;27;20040;-74
2023/06/05 05:13:19;;;;;;;2.03;0.52;;;;;;;16.46;33.63;102359.41;5059239;27;20071;-67
2023/06/05 05:15:46;;;;;;;2.95;0.60;;;;;;;16.90;32.84;102359.34;5071836;28;20028;-68
2023/06/05 05:18:12;;;;;;;1.95;1.15;;;;;;;16.25;33.68;102358.50;5075774;28;20043;-71
2023/06/05 05:20:40;;;;;;;4.50;1.23;;;;;;;15.83;34.27;102371.59;5067623;28;20621;-72
2023/06/05 05:23:07;;;;;;;1.30;0.70;;;;;;;16.89;34.48;102362.03;5075516;28;20093;-70
2023/06/05 05:25:33;;;;;;;2.53;0.85;;;;;;;17.78;31.86;102360.69;5058854;28;20096;-71
2023/06/05 05:27:59;;;;;;;3.50;0.90;;;;;;;18.68;30.09;102363.38;5077714;28;20036;-76
2023/06/05 05:30:24;;;;;;;2.53;0.98;;;;;;;19.06;29.43;102363.22;5056251;28;20039;-73
2023/06/05 05:32:51;;;;;;;2.20;1.27;;;;;;;18.91;29.87;102359.56;5098594;27;20044;-74
2023/06/05 05:35:16;;;;;;;2.35;1.10;;;;;;;18.99;29.33;102360.03;5069411;28;20032;-73
2023/06/05 05:37:42;;;;;;;2.58;1.23;;;;;;;19.02;29.11;102353.72;5076828;28;20039;-74
2023/06/05 05:40:08;;;;;;;2.83;0.93;;;;;;;18.95;29.11;102355.81;5057161;28;20200;-77
2023/06/05 05:42:34;;;;;;;2.95;0.80;;;;;;;19.15;29.26;102352.13;5068685;28;20075;-72
2023/06/05 05:45:00;;;;;;;3.00;0.93;;;;;;;19.28;28.88;102358.47;5076742;28;20119;-72
2023/06/05 05:47:27;;;;;;;1.70;0.90;;;;;;;19.57;28.63;102353.44;5070121;28;20155;-74
2023/06/05 05:49:53;;;;;;;1.27;0.55;;;;;;;19.85;28.39;102359.84;5098995;27;20049;-73
2023/06/05 05:52:20;;;;;;;3.22;0.50;;;;;;;19.96;28.48;102357.44;5073150;28;20032;-74
2023/06/05 05:54:45;;;;;;;7.70;1.05;;;;;;;18.73;30.38;102357.84;5076383;28;20115;-74
2023/06/05 05:57:11;;;;;;;3.95;0.60;;;;;;;18.70;29.12;102358.84;5075508;27;20035;-73
2023/06/05 05:59:37;;;;;;;4.28;0.85;;;;;;;18.89;29.29;102364.09;5053762;28;20079;-76
2023/06/05 06:02:09;;;;;;;6.20;1.23;;;;;;;19.34;28.73;102364.38;5080961;28;20240;-73
2023/06/05 06:04:35;;;;;;;6.57;0.60;;;;;;;19.78;27.93;102364.63;5071466;28;20755;-73
2023/06/05 06:07:01;;;;;;;2.40;0.68;;;;;;;19.33;28.33;102360.03;5071438;27;20080;-73
2023/06/05 06:09:26;;;;;;;0.90;0.38;;;;;;;18.75;29.49;102369.22;5075308;28;20043;-74
2023/06/05 06:11:55;;;;;;;3.03;0.50;;;;;;;19.11;29.28;102369.13;5069007;28;20032;-72
2023/06/05 06:14:24;;;;;;;1.23;0.75;;;;;;;19.55;28.50;102362.34;5071063;28;20108;-73
2023/06/05 06:16:51;;;;;;;2.05;0.73;;;;;;;20.20;27.34;102373.75;5074715;28;20027;-73
2023/06/05 06:19:16;;;;;;;2.25;1.05;;;;;;;20.03;28.56;102379.16;5074519;28;20044;-74
2023/06/05 06:21:42;;;;;;;3.45;0.90;;;;;;;20.34;27.05;102378.28;5071732;28;20031;-75
2023/06/05 06:24:08;;;;;;;1.08;0.50;;;;;;;20.64;27.36;102380.09;5075100;27;20036;-76
2023/06/05 06:26:36;;;;;;;3.17;0.43;;;;;;;19.91;27.94;102380.72;5106081;27;20201;-72
2023/06/05 06:29:02;;;;;;;1.40;0.30;;;;;;;18.24;30.45;102387.63;5073480;27;20111;-75
2023/06/05 06:31:28;;;;;;;0.73;0.20;;;;;;;19.11;28.93;102387.66;5091736;27;20040;-74
2023/06/05 06:33:53;;;;;;;0.75;0.30;;;;;;;19.75;28.36;102375.41;5101688;27;20052;-74
2023/06/05 06:36:19;;;;;;;1.98;0.75;;;;;;;20.22;27.88;102382.53;5074462;28;20521;-76
2023/06/05 06:38:45;;;;;;;1.67;0.73;;;;;;;21.20;26.48;102373.19;5070450;28;20041;-74
2023/06/05 06:41:10;;;;;;;1.88;0.40;;;;;;;20.57;26.75;102365.47;5108332;27;20036;-70
2023/06/05 06:43:36;;;;;;;3.15;0.50;;;;;;;20.45;26.89;102364.41;5071417;27;20028;-75
2023/06/05 06:46:04;;;;;;;1.40;0.47;;;;;;;20.33;27.30;102372.13;5056525;28;20327;-73
2023/06/05 06:48:30;;;;;;;3.25;0.50;;;;;;;21.31;26.21;102377.81;5088551;27;20553;-73
2023/06/05 06:50:55;;;;;;;1.48;0.70;;;;;;;21.58;25.71;102377.94;5070560;28;20032;-67
2023/06/05 06:53:21;;;;;;;1.08;0.40;;;;;;;21.20;26.22;102377.63;5064496;28;20052;-67
2023/06/05 06:55:46;;;;;;;1.10;0.43;;;;;;;21.42;25.36;102379.81;5069994;28;20059;-71
2023/06/05 06:58:12;;;;;;;0.90;0.30;;;;;;;22.15;24.76;102379.59;5072594;27;20063;-70
2023/06/05 07:00:37;;;;;;;1.00;0.40;;;;;;;22.25;24.77;102383.38;5070444;28;20118;-70
2023/06/05 07:03:03;;;;;;;3.83;0.40;;;;;;;22.15;24.66;102383.13;5069383;28;20043;-68
2023/06/05 07:05:28;;;;;;;1.17;0.47;;;;;;;22.02;24.77;102384.84;5070552;28;20059;-69
2023/06/05 07:07:54;;;;;;;0.90;0.40;;;;;;;20.48;26.75;102380.13;5066374;28;20035;-67
2023/06/05 07:10:19;;;;;;;1.52;0.65;;;;;;;19.47;28.89;102386.63;5071265;28;20661;-69
2023/06/05 07:12:45;;;;;;;1.30;0.38;;;;;;;20.96;26.38;102380.84;5069005;28;20036;-67
2023/06/05 07:15:10;;;;;;;1.65;0.50;;;;;;;21.60;25.46;102386.69;5072077;28;20059;-68
2023/06/05 07:17:36;;;;;;;2.75;0.75;;;;;;;21.21;26.28;102380.19;5068920;28;20058;-68
2023/06/05 07:20:04;;;;;;;3.05;0.50;;;;;;;20.90;26.41;102382.06;5070485;28;21611;-67
2023/06/05 07:22:30;;;;;;;1.17;0.40;;;;;;;20.59;27.02;102387.47;5069808;28;20043;-68
2023/06/05 07:24:55;;;;;;;1.20;0.30;;;;;;;21.75;26.72;102391.00;5071465;28;20028;-68
2023/06/05 07:27:22;;;;;;;3.03;0.82;;;;;;;22.76;23.93;102393.31;5071232;28;20485;-67
2023/06/05 07:29:47;;;;;;;1.65;0.30;;;;;;;23.23;23.42;102397.19;5070138;28;20134;-66
2023/06/05 07:32:13;;;;;;;2.17;0.38;;;;;;;21.33;25.97;102398.06;5074365;27;20080;-68
2023/06/05 07:34:39;;;;;;;1.08;0.30;;;;;;;18.45;29.64;102405.09;5067888;27;20032;-67
2023/06/05 07:37:07;;;;;;;2.35;0.55;;;;;;;18.46;29.87;102401.50;5067162;28;20051;-66
2023/06/05 07:39:34;;;;;;;1.55;0.60;;;;;;;17.87;31.50;102399.91;5066960;28;20043;-66
2023/06/05 07:42:00;;;;;;;1.30;0.50;;;;;;;16.80;32.34;102400.25;5069482;28;20039;-68
2023/06/05 07:44:25;;;;;;;1.23;0.75;;;;;;;17.85;32.18;102396.50;5068682;28;20051;-67
2023/06/05 07:46:51;;;;;;;1.42;0.70;;;;;;;20.12;27.93;102382.13;5067026;27;20310;-67
2023/06/05 07:49:18;;;;;;;2.42;0.82;;;;;;;19.14;29.20;102384.84;5069183;28;20102;-67
2023/06/05 07:51:47;;;;;;;2.05;0.80;;;;;;;17.79;32.38;102388.88;5070297;28;20028;-66
2023/06/05 07:54:15;;;;;;;2.78;0.63;;;;;;;18.70;30.30;102390.63;5064369;28;20648;-67
2023/06/05 07:56:41;;;;;;;1.10;0.50;;;;;;;20.93;27.15;102389.00;5078002;28;20284;-66
2023/06/05 07:59:07;;;;;;;7.20;0.77;;;;;;;21.49;26.61;102394.47;5069888;28;20511;-67
2023/06/05 08:01:36;;;;;;;1.70;0.63;;;;;;;22.11;25.85;102386.94;5070457;28;20047;-67
2023/06/05 08:04:10;;;;;;;1.08;0.50;;;;;;;23.37;24.06;102383.72;5074915;28;20039;-67
2023/06/05 08:06:37;;;;;;;1.42;0.70;;;;;;;24.54;22.37;102388.53;5101037;27;20042;-67
2023/06/05 08:09:04;;;;;;;1.20;0.30;;;;;;;23.71;23.04;102385.78;5070031;27;20040;-67
2023/06/05 08:11:29;;;;;;;1.77;0.60;;;;;;;23.66;22.77;102378.13;5069667;28;20042;-67
2023/06/05 08:13:55;;;;;;;1.45;0.50;;;;;;;23.26;24.31;102380.94;5070667;28;20040;-68
2023/06/05 08:16:21;;;;;;;2.78;0.68;;;;;;;24.09;22.57;102380.31;5071972;28;20040;-68
2023/06/05 08:18:47;;;;;;;4.25;0.90;;;;;;;24.17;22.90;102388.63;5070433;28;20038;-68
2023/06/05 08:21:13;;;;;;;3.22;0.60;;;;;;;24.83;22.42;102386.28;5072232;28;20768;-69
2023/06/05 08:23:38;;;;;;;2.28;0.60;;;;;;;24.08;22.75;102383.97;5067645;28;20039;-69
2023/06/05 08:26:10;;;;;;;3.38;0.40;;;;;;;24.77;22.02;102381.44;5073543;28;20297;-69
2023/06/05 08:28:40;;;;;;;1.17;0.50;;;;;;;24.84;21.27;102380.00;5061957;27;20126;-70
2023/06/05 08:31:06;;;;;;;1.25;0.40;;;;;;;24.16;22.37;102376.22;5071235;28;20457;-69
2023/06/05 08:33:35;;;;;;;0.70;0.40;;;;;;;23.50;23.07;102383.72;5070428;27;20044;-69
2023/06/05 08:36:01;;;;;;;1.50;0.80;;;;;;;22.97;23.99;102381.16;5069532;28;20036;-69
2023/06/05 08:38:27;;;;;;;1.20;0.40;;;;;;;23.29;24.00;102383.41;5065376;28;20280;-69
2023/06/05 08:40:59;;;;;;;1.02;0.40;;;;;;;23.34;24.14;102372.41;5068222;28;20108;-69
2023/06/05 08:43:25;;;;;;;4.65;0.60;;;;;;;23.25;23.41;102373.88;5069072;28;20072;-69
2023/06/05 08:45:52;;;;;;;2.72;0.45;;;;;;;23.40;23.71;102375.50;5072190;28;20561;-69
2023/06/05 08:48:21;;;;;;;3.08;0.52;;;;;;;23.30;24.31;102371.81;5071358;28;20476;-71
2023/06/05 08:50:48;;;;;;;1.05;0.50;;;;;;;23.28;24.10;102367.53;5072369;28;20120;-70
2023/06/05 08:53:16;;;;;;;1.13;0.30;;;;;;;24.66;24.07;102362.72;5069732;27;20603;-71
2023/06/05 08:55:45;;;;;;;1.20;0.40;;;;;;;24.58;22.67;102365.09;5070237;28;20028;-71
2023/06/05 08:58:13;;;;;;;1.15;0.57;;;;;;;24.38;22.63;102375.47;5069381;28;20467;-71
2023/06/05 09:00:40;;;;;;;1.05;0.52;;;;;;;24.77;22.37;102360.06;5069318;28;20082;-68
2023/06/05 09:03:06;;;;;;;1.17;0.50;;;;;;;24.54;22.50;102359.13;5069417;27;20040;-69
2023/06/05 09:05:32;;;;;;;0.98;0.50;;;;;;;25.26;21.78;102366.03;5069876;28;20042;-70
2023/06/05 09:07:58;;;;;;;2.88;0.70;;;;;;;24.58;21.93;102357.94;5066708;27;20051;-71
2023/06/05 09:10:28;;;;;;;1.67;0.47;;;;;;;23.42;23.31;102373.56;5071310;28;20054;-71
2023/06/05 09:13:02;;;;;;;4.50;0.60;;;;;;;23.74;22.73;102367.72;5066893;27;20048;-70
2023/06/05 09:15:29;;;;;;;2.83;0.50;;;;;;;24.27;22.49;102371.91;5065675;28;20159;-71
2023/06/05 09:18:14;;;;;;;2.85;1.20;;;;;;;22.07;24.93;102372.09;5073249;27;20036;-71
2023/06/05 09:20:42;;;;;;;3.65;0.50;;;;;;;20.83;27.39;102367.41;5069938;28;20212;-71
2023/06/05 09:23:28;;;;;;;1.90;0.77;;;;;;;21.97;26.96;102369.19;5069790;28;20032;-71
2023/06/05 09:25:58;;;;;;;2.33;0.80;;;;;;;21.46;26.00;102370.69;5100058;27;20048;-71
2023/06/05 09:28:24;;;;;;;2.10;0.45;;;;;;;20.35;27.57;102379.13;5068608;28;20052;-71
2023/06/05 09:30:57;;;;;;;1.70;0.57;;;;;;;20.25;28.29;102378.84;5069302;28;20590;-71
2023/06/05 09:33:23;;;;;;;2.00;0.90;;;;;;;20.67;27.62;102374.59;5066329;28;21091;-71
2023/06/05 09:36:10;;;;;;;4.03;0.90;;;;;;;21.18;27.83;102375.09;5066698;28;20028;-71
2023/06/05 09:38:38;;;;;;;2.70;1.00;;;;;;;21.27;26.85;102373.66;5065714;27;20508;-71
2023/06/05 09:41:09;;;;;;;2.17;0.40;;;;;;;21.11;27.08;102366.63;5063800;28;20075;-71
2023/06/05 09:43:36;;;;;;;2.47;0.80;;;;;;;19.59;28.98;102383.38;5065165;27;20051;-71
2023/06/05 09:46:12;;;;;;;1.40;0.43;;;;;;;19.41;29.86;102385.19;5066925;28;20028;-71
2023/06/05 09:48:39;;;;;;;1.15;0.50;;;;;;;19.76;29.74;102378.91;5064157;28;20080;-71
2023/06/05 09:51:23;;;;;;;2.15;0.40;;;;;;;19.66;29.30;102379.44;5069494;28;20236;-71
2023/06/05 09:53:50;;;;;;;0.98;0.47;;;;;;;19.33;30.09;102370.63;5066772;28;20040;-72
2023/06/05 09:56:21;;;;;;;1.67;0.50;;;;;;;18.81;30.30;102371.53;5056808;28;20648;-71
2023/06/05 09:58:51;;;;;;;1.25;0.55;;;;;;;18.69;31.25;102373.03;5098930;27;20055;-72
2023/06/05 10:01:22;;;;;;;1.17;0.50;;;;;;;18.63;30.92;102370.69;5046879;28;20040;-71
2023/06/05 10:03:56;;;;;;;0.77;0.40;;;;;;;18.97;30.21;102361.06;5067904;27;20039;-71
2023/06/05 10:06:23;;;;;;;1.23;0.47;;;;;;;19.34;30.14;102367.03;5069150;28;20290;-71
2023/06/05 10:08:52;;;;;;;1.70;0.47;;;;;;;20.62;28.42;102360.72;5066030;28;20039;-71
2023/06/05 10:11:20;;;;;;;2.10;0.40;;;;;;;20.00;28.39;102369.59;5064598;28;20043;-71
2023/06/05 10:13:48;;;;;;;1.10;0.57;;;;;;;19.54;30.00;102355.34;5065667;27;20036;-71
2023/06/05 10:16:16;;;;;;;1.35;0.68;;;;;;;19.59;29.88;102361.28;5064457;28;20064;-71
2023/06/05 10:18:41;;;;;;;1.83;0.73;;;;;;;19.75;29.45;102361.28;5066027;28;20043;-72
2023/06/05 10:21:07;;;;;;;3.65;1.10;;;;;;;19.69;29.22;102370.44;5067987;28;20043;-73
2023/06/05 10:23:35;;;;;;;1.67;0.70;;;;;;;19.63;29.42;102363.66;5044870;28;20047;-71
2023/06/05 10:26:12;;;;;;;7.10;0.50;;;;;;;19.34;29.97;102370.53;5048297;28;20424;-73
2023/06/05 10:29:25;;;;;;;1.67;0.95;;;;;;;18.55;30.58;102372.88;5055813;27;20043;-71
2023/06/05 10:32:01;;;;;;;1.92;0.88;;;;;;;18.42;31.56;102364.69;5062652;28;20677;-71
2023/06/05 10:34:49;;;;;;;1.10;0.60;;;;;;;19.08;30.81;102364.00;5097263;27;20039;-71
2023/06/05 10:37:39;;;;;;;2.20;1.00;;;;;;;19.54;29.41;102361.50;5066447;27;20130;-71
2023/06/05 10:40:06;;;;;;;2.50;0.82;;;;;;;19.40;30.53;102358.75;5069439;28;20102;-72
2023/06/05 10:42:31;;;;;;;1.75;0.77;;;;;;;19.67;29.13;102354.59;5068590;27;20064;-70
2023/06/05 10:44:57;;;;;;;2.83;0.65;;;;;;;19.68;29.84;102353.69;5069988;28;20143;-72
2023/06/05 10:47:31;;;;;;;4.40;1.15;;;;;;;19.22;30.34;102361.44;5051327;28;20707;-71
2023/06/05 10:50:15;;;;;;;3.72;0.85;;;;;;;19.39;29.56;102357.03;5071232;28;20039;-71
2023/06/05 10:52:42;;;;;;;2.10;1.48;;;;;;;19.74;28.91;102363.09;5072142;27;20048;-72
2023/06/05 10:55:08;;;;;;;1.67;1.15;;;;;;;20.04;29.36;102362.31;5071139;28;20150;-72
2023/06/05 10:57:55;;;;;;;3.45;1.08;;;;;;;19.56;29.69;102359.66;5068672;28;20066;-71
2023/06/05 11:00:22;;;;;;;1.88;0.80;;;;;;;18.58;30.69;102368.25;5071170;28;20058;-69
2023/06/05 11:02:48;;;;;;;2.53;1.02;;;;;;;19.15;30.00;102360.06;5068241;27;20045;-69
2023/06/05 11:05:14;;;;;;;2.33;1.27;;;;;;;19.34;29.93;102356.44;5067591;28;20584;-69
2023/06/05 11:07:45;;;;;;;2.00;1.50;;;;;;;19.32;29.83;102355.66;5069629;28;20043;-69
2023/06/05 11:10:20;;;;;;;3.85;1.52;;;;;;;18.92;30.72;102353.34;5070720;28;20279;-70
2023/06/05 11:12:46;;;;;;;2.33;1.23;;;;;;;18.69;31.20;102354.47;5067922;28;20040;-69
2023/06/05 11:15:12;;;;;;;1.98;1.13;;;;;;;18.76;30.74;102358.53;5069922;28;20042;-69
2023/06/05 11:17:42;;;;;;;4.35;1.67;;;;;;;19.14;30.66;102353.03;5066300;28;20457;-69
2023/06/05 11:20:26;;;;;;;5.03;1.93;;;;;;;18.36;31.68;102354.38;5067093;28;20122;-69
2023/06/05 11:22:52;;;;;;;2.10;1.52;;;;;;;18.54;31.13;102352.59;5067920;27;20982;-69
2023/06/05 11:25:18;;;;;;;3.97;1.42;;;;;;;19.07;30.59;102354.31;5069278;27;20031;-69
2023/06/05 11:27:49;;;;;;;2.80;1.40;;;;;;;19.06;30.21;102345.50;5095162;27;20244;-69
2023/06/05 11:30:16;;;;;;;2.03;1.13;;;;;;;19.41;29.49;102344.53;5067220;28;20071;-69